Time;durP1;ratioP1;P1;durP2;ratioP2;P2;SDS_P1;SDS_P2;PMS_P1;PMS_P2;Temp;Humidity;BMP_temperature;BMP_pressure;BME280_temperature;BME280_humidity;BME280_pressure;Samples;Min_cycle;Max_cycle;Signal;HPM_P1;HPM_P2
2022/08/04 00:01:16;;;;;;;9.90;8.90;;;;;;;20.62;64.68;98142.80;108036;1288;22511;-84
2022/08/04 00:03:58;;;;;;;9.40;8.40;;;;;;;20.65;65.10;98139.95;108313;1288;22417;-86
2022/08/04 00:06:59;;;;;;;10.00;8.30;;;;;;;20.68;65.11;98138.00;108271;1287;22460;-87
2022/08/04 00:10:00;;;;;;;9.20;8.30;;;;;;;20.77;64.81;98130.99;108171;1288;22270;-85
2022/08/04 00:12:34;;;;;;;10.50;9.30;;;;;;;20.78;64.43;98133.19;107822;1288;22562;-86
2022/08/04 00:15:10;;;;;;;10.30;8.80;;;;;;;20.71;64.51;98132.66;108259;1288;23022;-86
2022/08/04 00:18:07;;;;;;;9.50;8.70;;;;;;;20.63;64.62;98135.38;108235;1288;22468;-86
2022/08/04 00:20:39;;;;;;;9.70;8.70;;;;;;;20.52;64.55;98131.56;107955;1288;22525;-86
2022/08/04 00:23:08;;;;;;;9.30;8.40;;;;;;;20.40;64.74;98129.72;108060;1288;22439;-86
2022/08/04 00:25:40;;;;;;;12.00;9.40;;;;;;;20.38;65.06;98131.95;108198;1287;22525;-86
2022/08/04 00:28:08;;;;;;;10.20;9.20;;;;;;;20.36;64.74;98128.76;108038;1289;22444;-82
2022/08/04 00:30:36;;;;;;;12.30;8.30;;;;;;;20.33;64.86;98133.64;108026;1289;22282;-87
2022/08/04 00:33:06;;;;;;;9.30;8.20;;;;;;;20.35;65.07;98131.49;108017;1289;22866;-88
2022/08/04 00:35:35;;;;;;;8.80;7.90;;;;;;;20.41;65.34;98130.05;108041;1289;23063;-87
2022/08/04 00:38:04;;;;;;;10.80;8.50;;;;;;;20.51;65.41;98132.70;108038;1290;22527;-86
2022/08/04 00:40:58;;;;;;;10.20;8.40;;;;;;;20.59;65.16;98131.34;108047;1289;22444;-86
2022/08/04 00:43:34;;;;;;;10.20;8.40;;;;;;;20.62;65.19;98133.04;108035;1289;22469;-87
2022/08/04 00:46:20;;;;;;;9.90;9.00;;;;;;;20.65;65.19;98129.64;108017;1287;23694;-84
2022/08/04 00:49:06;;;;;;;9.60;8.70;;;;;;;20.63;65.44;98131.48;108037;1289;22303;-84
2022/08/04 00:52:26;;;;;;;8.70;7.90;;;;;;;20.55;64.81;98131.84;108033;1288;22405;-86
2022/08/04 00:55:17;;;;;;;;;;;;;;;20.47;65.68;98134.14;107591;1293;22526;-86
2022/08/04 00:58:22;;;;;;;10.70;9.50;;;;;;;20.47;65.83;98132.35;107557;1292;23093;-88
2022/08/04 01:01:03;;;;;;;;;;;;;;;20.36;65.42;98130.88;107599;1292;23054;-87
2022/08/04 01:04:14;;;;;;;10.80;9.70;;;;;;;20.27;65.66;98128.55;107551;1293;23230;-88
2022/08/04 01:07:22;;;;;;;11.10;8.60;;;;;;;20.21;66.29;98129.38;107213;1296;22836;-88
2022/08/04 01:10:07;;;;;;;10.60;8.50;;;;;;;20.26;65.99;98131.73;107243;1296;22416;-88
2022/08/04 01:12:42;;;;;;;10.10;8.90;;;;;;;20.08;65.61;98129.31;107209;1296;22517;-88
2022/08/04 01:15:18;;;;;;;10.50;8.70;;;;;;;19.95;65.95;98130.73;107234;1296;23134;-87
2022/08/04 01:18:13;;;;;;;10.00;9.10;;;;;;;19.90;66.47;98136.30;107231;1295;23128;-86
2022/08/04 01:21:07;;;;;;;9.90;8.90;;;;;;;19.83;66.79;98138.71;107222;1296;22447;-86
2022/08/04 01:23:38;;;;;;;;;;;;;;;19.84;67.13;98138.27;107232;1296;22470;-85
2022/08/04 01:26:40;;;;;;;12.70;9.50;;;;;;;19.89;66.97;98138.17;107371;1293;22437;-86
2022/08/04 01:29:34;;;;;;;10.10;8.50;;;;;;;19.96;66.81;98134.04;107580;1293;22320;-86
2022/08/04 01:32:21;;;;;;;11.00;9.00;;;;;;;19.94;66.71;98132.57;107556;1293;22476;-85
2022/08/04 01:35:12;;;;;;;10.10;8.30;;;;;;;19.91;67.25;98131.41;107543;1292;22413;-85
2022/08/04 01:38:01;;;;;;;14.50;8.40;;;;;;;19.94;66.85;98130.88;107678;1290;22538;-86
2022/08/04 01:40:46;;;;;;;12.80;8.60;;;;;;;19.89;66.26;98128.01;108033;1290;22562;-86
2022/08/04 01:43:15;;;;;;;10.90;8.80;;;;;;;19.81;66.94;98131.79;108043;1290;22506;-84
2022/08/04 01:45:49;;;;;;;9.30;8.40;;;;;;;19.79;67.28;98126.74;108042;1288;22454;-86
2022/08/04 01:48:26;;;;;;;8.30;7.50;;;;;;;19.85;66.72;98131.34;107973;1290;22835;-84
2022/08/04 01:51:01;;;;;;;8.40;7.60;;;;;;;19.87;66.59;98128.35;108047;1289;22505;-85
2022/08/04 01:53:32;;;;;;;9.10;8.20;;;;;;;19.88;66.43;98131.95;108054;1289;22317;-86
2022/08/04 01:56:02;;;;;;;9.00;8.10;;;;;;;19.86;66.83;98131.08;107873;1290;228005;-87
2022/08/04 01:58:32;;;;;;;8.80;8.00;;;;;;;19.92;67.08;98134.40;108037;1289;22442;-87
2022/08/04 02:01:11;;;;;;;10.00;8.10;;;;;;;19.97;67.21;98133.34;107972;1290;22513;-87
2022/08/04 02:03:43;;;;;;;8.90;7.10;;;;;;;20.02;67.10;98129.79;108049;1289;22329;-86
2022/08/04 02:06:46;;;;;;;7.80;7.10;;;;;;;20.07;67.30;98127.64;108045;1290;23102;-87
2022/08/04 02:09:35;;;;;;;9.80;7.80;;;;;;;20.12;66.88;98128.00;108068;1290;22364;-86
2022/08/04 02:12:43;;;;;;;8.70;7.80;;;;;;;20.04;66.77;98126.80;108049;1289;22421;-86
2022/08/04 02:15:26;;;;;;;9.60;8.00;;;;;;;19.96;66.70;98122.77;107856;1290;22360;-86
2022/08/04 02:18:05;;;;;;;8.60;7.70;;;;;;;19.85;66.85;98126.03;108040;1290;22559;-87
2022/08/04 02:20:37;;;;;;;8.00;7.20;;;;;;;19.81;67.41;98121.87;108066;1290;22440;-87
2022/08/04 02:23:09;;;;;;;10.40;9.20;;;;;;;19.82;67.42;98117.53;108045;1290;22468;-86
2022/08/04 02:25:55;;;;;;;8.20;7.30;;;;;;;19.87;67.42;98114.83;108100;1288;22631;-86
2022/08/04 02:29:07;;;;;;;9.40;7.60;;;;;;;19.94;67.09;98110.63;108228;1287;23167;-86
2022/08/04 02:31:51;;;;;;;9.00;7.90;;;;;;;19.94;66.68;98109.23;108181;1288;22423;-87
2022/08/04 02:34:47;;;;;;;10.50;8.10;;;;;;;19.93;67.05;98107.63;108242;1287;22375;-87
2022/08/04 02:37:20;;;;;;;10.10;8.60;;;;;;;19.89;67.25;98107.23;108246;1288;23200;-86
2022/08/04 02:39:52;;;;;;;9.00;7.40;;;;;;;19.87;67.18;98104.38;108225;1288;22411;-86
2022/08/04 02:42:21;;;;;;;8.70;7.90;;;;;;;19.86;66.98;98105.20;108212;1288;22370;-87
2022/08/04 02:44:50;;;;;;;10.60;8.60;;;;;;;19.82;66.98;98105.20;108203;1288;23054;-87
2022/08/04 02:47:20;;;;;;;9.10;7.70;;;;;;;19.82;67.35;98102.13;108017;1288;23015;-86
2022/08/04 02:49:50;;;;;;;12.00;7.90;;;;;;;19.86;67.22;98101.23;108055;1288;22357;-86
2022/08/04 02:52:20;;;;;;;8.80;7.90;;;;;;;19.85;67.36;98099.24;108223;1288;22295;-87
2022/08/04 02:54:52;;;;;;;8.90;7.80;;;;;;;19.85;67.71;98099.86;108221;1288;23123;-87
2022/08/04 02:57:23;;;;;;;9.20;8.20;;;;;;;19.82;67.57;98098.39;108209;1288;23238;-88
2022/08/04 03:00:03;;;;;;;10.00;8.10;;;;;;;19.79;67.41;98099.42;108056;1288;23120;-87
2022/08/04 03:03:00;;;;;;;10.30;7.50;;;;;;;19.72;67.51;98100.80;108194;1287;22455;-88
2022/08/04 03:06:06;;;;;;;9.60;8.20;;;;;;;19.73;67.43;98097.09;108110;1288;22430;-87
2022/08/04 03:09:11;;;;;;;9.10;7.60;;;;;;;19.67;67.80;98096.31;108185;1288;23429;-88
2022/08/04 03:12:31;;;;;;;9.50;8.50;;;;;;;19.66;67.86;98097.46;108213;1288;23257;-87
2022/08/04 03:15:39;;;;;;;12.10;8.40;;;;;;;19.57;67.74;98101.17;108028;1288;22440;-87
2022/08/04 03:18:10;;;;;;;11.00;7.90;;;;;;;19.46;68.01;98098.27;108186;1288;22365;-84
2022/08/04 03:20:37;;;;;;;9.40;7.00;;;;;;;19.47;68.25;98102.11;108172;1288;22352;-88
2022/08/04 03:23:33;;;;;;;7.40;6.70;;;;;;;19.57;68.24;98104.07;108200;1288;22325;-88
2022/08/04 03:26:28;;;;;;;8.10;7.20;;;;;;;19.63;68.24;98108.52;108206;1288;22560;-87
2022/08/04 03:29:14;;;;;;;10.50;7.10;;;;;;;19.70;68.43;98103.98;108189;1288;22290;-88
2022/08/04 03:32:07;;;;;;;10.40;7.20;;;;;;;19.74;68.18;98104.14;108201;1288;22433;-85
2022/08/04 03:34:44;;;;;;;8.20;7.40;;;;;;;19.76;67.97;98105.03;108199;1288;22380;-87
2022/08/04 03:37:34;;;;;;;8.60;7.70;;;;;;;19.72;67.97;98107.83;108208;1288;22353;-86
2022/08/04 03:40:11;;;;;;;9.20;7.00;;;;;;;19.66;68.00;98104.23;108200;1288;23010;-86
2022/08/04 03:43:09;;;;;;;8.70;7.30;;;;;;;19.71;68.72;98109.45;108198;1288;22285;-86
2022/08/04 03:46:35;;;;;;;9.90;7.30;;;;;;;19.87;68.57;98108.96;108180;1288;22492;-84
2022/08/04 03:49:34;;;;;;;7.80;7.00;;;;;;;19.91;68.60;98111.34;108187;1288;22394;-87
2022/08/04 03:55:07;;;;;;;7.80;6.60;;;;;;;20.15;67.97;98110.95;108216;1288;22520;-87
2022/08/04 03:58:00;;;;;;;7.80;7.00;;;;;;;20.12;67.98;98114.02;108202;1288;22879;-88
2022/08/04 04:01:04;;;;;;;7.40;6.30;;;;;;;20.11;67.90;98116.01;108194;1289;22985;-86
2022/08/04 04:03:45;;;;;;;;;;;;;;;20.12;68.09;98113.08;108229;1288;22379;-85
2022/08/04 04:06:50;;;;;;;8.80;7.70;;;;;;;20.04;67.34;98111.95;108207;1288;22375;-86
2022/08/04 04:09:39;;;;;;;9.00;8.10;;;;;;;19.89;67.48;98110.96;108216;1288;22348;-86
2022/08/04 04:12:55;;;;;;;8.50;6.80;;;;;;;19.82;68.30;98110.96;108203;1288;22365;-86
2022/08/04 04:15:46;;;;;;;8.60;7.40;;;;;;;19.91;68.38;98114.70;108214;1288;22476;-88
2022/08/04 04:19:05;;;;;;;11.50;7.80;;;;;;;20.00;67.94;98118.10;108223;1288;22554;-87
2022/08/04 04:22:08;;;;;;;10.40;9.30;;;;;;;19.79;67.39;98125.83;107462;1288;22611;-85
2022/08/04 04:25:04;;;;;;;13.60;11.20;;;;;;;19.68;68.12;98121.41;107895;1288;22439;-86
2022/08/04 04:27:49;;;;;;;13.00;10.80;;;;;;;19.74;68.94;98122.11;108082;1288;22563;-88
2022/08/04 04:30:35;;;;;;;10.50;9.40;;;;;;;19.88;68.92;98122.69;108218;1288;22344;-83
2022/08/04 04:33:25;;;;;;;11.20;10.00;;;;;;;20.07;68.49;98121.92;108073;1288;22451;-87
2022/08/04 04:36:01;;;;;;;13.00;9.30;;;;;;;20.18;68.55;98121.80;108206;1288;22390;-87
2022/08/04 04:38:47;;;;;;;15.10;9.50;;;;;;;20.24;67.92;98124.13;108201;1287;22256;-86
2022/08/04 04:41:34;;;;;;;12.20;9.50;;;;;;;20.20;68.04;98129.27;108183;1288;23063;-87
2022/08/04 04:44:20;;;;;;;10.40;8.40;;;;;;;20.18;67.94;98126.97;108205;1288;22427;-87
2022/08/04 04:47:04;;;;;;;10.70;8.50;;;;;;;20.23;68.28;98129.16;108219;1288;22984;-88
2022/08/04 04:49:35;;;;;;;13.80;9.20;;;;;;;20.23;67.75;98134.58;108207;1288;22359;-85
2022/08/04 04:52:29;;;;;;;13.50;9.00;;;;;;;20.24;68.30;98135.54;108201;1288;22418;-86
2022/08/04 04:54:57;;;;;;;11.10;8.60;;;;;;;20.37;68.16;98135.75;107934;1290;22458;-85
2022/08/04 04:57:29;;;;;;;10.10;8.30;;;;;;;20.41;68.10;98135.61;107928;1290;22429;-85
2022/08/04 05:00:18;;;;;;;15.40;8.80;;;;;;;20.49;68.44;98134.42;107941;1290;23126;-86
2022/08/04 05:02:58;;;;;;;11.90;8.60;;;;;;;20.57;68.31;98135.11;107948;1289;22568;-87
2022/08/04 05:05:42;;;;;;;13.90;8.60;;;;;;;20.67;68.23;98136.10;107731;1290;22659;-86
2022/08/04 05:08:28;;;;;;;11.70;8.50;;;;;;;20.66;67.72;98129.27;107920;1290;22537;-85
2022/08/04 05:11:48;;;;;;;23.80;8.50;;;;;;;20.45;67.60;98130.75;107927;1290;22550;-87
2022/08/04 05:14:23;;;;;;;12.20;7.80;;;;;;;20.33;68.35;98133.23;107847;1290;22560;-87
2022/08/04 05:17:20;;;;;;;11.30;7.70;;;;;;;20.35;68.73;98132.09;107939;1290;22418;-85
2022/08/04 05:19:58;;;;;;;9.90;7.20;;;;;;;20.47;68.85;98129.56;107941;1289;22348;-86
2022/08/04 05:22:52;;;;;;;13.60;7.90;;;;;;;20.59;68.82;98129.92;107938;1289;22365;-86
2022/08/04 05:25:52;;;;;;;11.90;7.10;;;;;;;20.71;68.87;98131.25;107977;1288;23030;-85
2022/08/04 05:28:50;;;;;;;9.30;6.90;;;;;;;20.83;68.60;98132.21;107300;1296;22338;-86
2022/08/04 05:31:23;;;;;;;8.90;7.00;;;;;;;20.99;68.47;98136.98;107293;1295;22501;-86
2022/08/04 05:34:14;;;;;;;9.40;6.90;;;;;;;21.09;68.21;98133.10;107316;1295;23089;-86
2022/08/04 05:36:47;;;;;;;11.70;7.10;;;;;;;21.22;68.07;98137.42;107297;1296;23027;-87
2022/08/04 05:39:20;;;;;;;10.30;7.70;;;;;;;21.26;67.84;98140.94;107309;1295;23174;-84
2022/08/04 05:41:49;;;;;;;11.50;7.50;;;;;;;21.29;67.61;98143.11;107310;1295;22284;-87
2022/08/04 05:44:27;;;;;;;7.70;6.90;;;;;;;21.38;67.58;98150.02;107310;1296;22587;-86
2022/08/04 05:46:56;;;;;;;11.00;6.50;;;;;;;21.46;67.46;98148.05;107236;1297;22423;-88
2022/08/04 05:49:28;;;;;;;9.60;7.40;;;;;;;21.55;67.40;98148.13;107238;1296;22492;-86
2022/08/04 05:52:00;;;;;;;13.20;7.50;;;;;;;21.65;67.17;98145.40;107265;1296;22338;-87
2022/08/04 05:54:30;;;;;;;8.70;6.30;;;;;;;21.70;67.00;98144.41;107306;1295;22396;-86
2022/08/04 05:57:01;;;;;;;7.30;6.20;;;;;;;21.77;66.90;98143.25;107242;1296;22541;-87
2022/08/04 05:59:31;;;;;;;6.60;6.00;;;;;;;21.87;66.74;98148.44;107302;1296;22548;-86
2022/08/04 06:02:01;;;;;;;8.70;6.00;;;;;;;21.98;66.27;98148.84;107315;1295;22526;-86
2022/08/04 06:04:38;;;;;;;7.80;5.90;;;;;;;22.04;66.24;98154.81;107467;1288;22425;-87
2022/08/04 06:07:09;;;;;;;7.00;5.80;;;;;;;22.12;66.21;98147.16;108206;1288;22353;-88
2022/08/04 06:09:38;;;;;;;9.90;6.10;;;;;;;22.23;65.78;98147.77;108106;1288;22486;-86
2022/08/04 06:12:09;;;;;;;8.70;6.60;;;;;;;22.27;65.44;98148.37;107972;1288;22530;-87
2022/08/04 06:14:42;;;;;;;7.90;6.00;;;;;;;22.32;65.38;98150.33;108090;1288;23070;-87
2022/08/04 06:17:20;;;;;;;7.50;6.10;;;;;;;22.39;65.29;98148.23;108183;1288;23023;-87
2022/08/04 06:20:09;;;;;;;13.70;7.00;;;;;;;22.50;65.14;98153.09;108205;1288;22979;-86
2022/08/04 06:22:54;;;;;;;7.30;6.00;;;;;;;22.57;64.44;98149.96;108171;1287;22328;-87
2022/08/04 06:25:25;;;;;;;7.50;6.20;;;;;;;22.60;64.08;98154.71;108201;1288;23165;-85
2022/08/04 06:27:54;;;;;;;8.70;6.00;;;;;;;22.64;63.84;98150.91;108095;1288;22399;-87
2022/08/04 06:30:25;;;;;;;9.60;6.10;;;;;;;22.70;63.56;98154.45;108193;1287;22314;-85
2022/08/04 06:32:59;;;;;;;8.10;5.80;;;;;;;22.73;63.23;98157.55;108179;1288;22239;-87
2022/08/04 06:35:33;;;;;;;8.80;5.70;;;;;;;22.79;63.11;98158.64;108081;1288;22488;-88
2022/08/04 06:38:02;;;;;;;9.00;6.00;;;;;;;22.83;62.85;98160.59;108198;1287;22356;-86
2022/08/04 06:40:31;;;;;;;11.50;5.80;;;;;;;22.86;62.69;98161.26;108188;1287;22417;-86
2022/08/04 06:43:04;;;;;;;9.30;6.10;;;;;;;22.95;62.61;98167.02;108181;1288;22334;-85
2022/08/04 06:45:36;;;;;;;8.70;5.90;;;;;;;23.04;62.53;98165.65;108166;1288;22477;-85
2022/08/04 06:48:05;;;;;;;8.60;5.40;;;;;;;23.13;62.24;98166.46;107953;1288;22470;-85
2022/08/04 06:50:35;;;;;;;7.70;5.60;;;;;;;23.20;61.66;98158.77;108168;1287;22170;-87
2022/08/04 06:53:33;;;;;;;9.90;5.60;;;;;;;23.26;61.08;98161.89;108152;1287;22387;-85
2022/08/04 06:56:01;;;;;;;6.70;5.60;;;;;;;23.30;61.05;98155.11;108006;1288;22442;-85
2022/08/04 06:58:32;;;;;;;9.40;5.80;;;;;;;23.39;61.06;98153.39;108183;1287;22347;-87
2022/08/04 07:01:01;;;;;;;9.00;6.00;;;;;;;23.46;60.67;98151.88;108175;1286;22518;-85
2022/08/04 07:03:29;;;;;;;9.10;5.90;;;;;;;23.51;60.56;98154.83;108045;1288;22426;-88
2022/08/04 07:05:59;;;;;;;6.10;5.30;;;;;;;23.60;60.51;98154.92;108153;1288;22418;-84
2022/08/04 07:08:35;;;;;;;7.60;5.70;;;;;;;23.72;60.61;98156.79;108081;1288;22398;-85
2022/08/04 07:11:04;;;;;;;8.50;6.40;;;;;;;23.84;60.18;98157.29;108169;1288;23236;-86
2022/08/04 07:13:33;;;;;;;9.70;5.90;;;;;;;23.93;59.71;98154.30;108190;1287;23154;-83
2022/08/04 07:16:01;;;;;;;9.70;5.70;;;;;;;24.00;59.15;98154.74;108176;1287;22317;-85
2022/08/04 07:18:30;;;;;;;7.50;5.70;;;;;;;24.00;58.59;98159.31;108165;1287;23085;-86
2022/08/04 07:20:59;;;;;;;8.20;5.10;;;;;;;24.07;58.80;98157.86;107844;1288;23579;-86
2022/08/04 07:23:27;;;;;;;6.30;5.00;;;;;;;24.15;58.08;98154.61;108178;1288;23249;-83
2022/08/04 07:25:57;;;;;;;7.60;5.20;;;;;;;24.24;57.87;98156.64;108178;1288;22483;-83
2022/08/04 07:28:40;;;;;;;10.20;5.00;;;;;;;24.32;57.65;98157.64;107998;1288;22540;-83
2022/08/04 07:31:12;;;;;;;8.90;5.50;;;;;;;24.39;57.20;98157.69;108197;1288;23192;-85
2022/08/04 07:34:00;;;;;;;10.80;5.50;;;;;;;24.47;56.78;98156.90;107868;1288;22278;-89
2022/08/04 07:36:50;;;;;;;8.60;5.20;;;;;;;24.57;56.81;98156.63;108217;1288;22354;-86
2022/08/04 07:39:25;;;;;;;8.70;4.30;;;;;;;24.66;56.75;98161.95;108193;1286;22439;-87
2022/08/04 07:41:58;;;;;;;6.20;4.80;;;;;;;24.75;56.29;98158.63;108223;1285;22310;-89
2022/08/04 07:44:33;;;;;;;10.50;4.30;;;;;;;24.86;55.96;98158.35;108035;1288;22306;-86
2022/08/04 07:47:04;;;;;;;10.40;5.00;;;;;;;24.95;55.27;98156.25;108242;1287;22511;-87
2022/08/04 07:49:34;;;;;;;7.00;4.90;;;;;;;25.00;54.37;98161.00;108028;1288;22425;-86
2022/08/04 07:52:23;;;;;;;12.70;5.20;;;;;;;25.07;54.06;98161.11;108206;1287;23193;-85
2022/08/04 07:54:52;;;;;;;8.20;5.10;;;;;;;25.14;53.86;98161.63;107805;1288;22364;-87
2022/08/04 07:57:20;;;;;;;11.70;5.00;;;;;;;25.25;53.42;98155.20;108013;1288;22442;-86
2022/08/04 08:00:11;;;;;;;10.60;4.60;;;;;;;25.38;53.66;98155.09;108208;1288;22371;-87
2022/08/04 08:02:40;;;;;;;6.20;4.50;;;;;;;25.49;53.25;98153.83;108208;1288;22298;-86
2022/08/04 08:05:15;;;;;;;6.90;3.90;;;;;;;25.59;52.34;98153.45;108020;1288;22368;-87
2022/08/04 08:07:48;;;;;;;8.30;4.30;;;;;;;25.67;51.93;98153.30;107821;1288;22309;-87
2022/08/04 08:10:21;;;;;;;6.70;3.70;;;;;;;25.75;52.03;98150.24;108236;1288;22370;-86
2022/08/04 08:12:51;;;;;;;10.10;4.30;;;;;;;25.85;51.66;98153.59;108208;1287;22523;-87
2022/08/04 08:15:20;;;;;;;7.40;4.40;;;;;;;25.95;51.74;98158.64;108029;1287;23085;-88
2022/08/04 08:17:48;;;;;;;11.70;3.90;;;;;;;26.02;50.77;98150.89;108244;1287;22424;-86
2022/08/04 08:20:27;;;;;;;7.50;3.80;;;;;;;26.10;50.35;98155.70;108130;1288;22388;-86
2022/08/04 08:22:59;;;;;;;8.50;4.40;;;;;;;26.13;49.98;98150.97;108149;1288;22294;-87
2022/08/04 08:25:30;;;;;;;5.70;4.10;;;;;;;26.23;50.22;98154.02;107940;1288;22350;-87
2022/08/04 08:27:59;;;;;;;11.90;4.10;;;;;;;26.31;49.96;98152.13;108164;1288;22419;-86
2022/08/04 08:30:26;;;;;;;7.40;3.60;;;;;;;26.39;49.53;98155.11;107932;1288;22361;-87
2022/08/04 08:33:02;;;;;;;7.80;3.70;;;;;;;26.46;48.96;98157.86;108128;1288;22511;-87
2022/08/04 08:35:47;;;;;;;7.00;4.50;;;;;;;26.53;48.98;98153.61;107955;1288;22423;-87
2022/08/04 08:38:36;;;;;;;6.30;3.80;;;;;;;26.63;48.52;98153.96;108245;1288;22335;-86
2022/08/04 08:41:39;;;;;;;7.20;3.10;;;;;;;26.72;48.03;98152.82;108138;1287;23562;-87
2022/08/04 08:44:30;;;;;;;7.50;3.50;;;;;;;26.82;46.92;98155.09;107479;1287;22506;-87
2022/08/04 08:47:09;;;;;;;7.90;3.30;;;;;;;26.86;46.77;98161.30;108213;1287;22442;-86
2022/08/04 08:49:55;;;;;;;13.80;3.60;;;;;;;26.91;46.57;98161.70;108264;1288;22252;-87
2022/08/04 08:52:37;;;;;;;16.00;3.50;;;;;;;26.94;45.91;98159.77;108277;1288;23012;-86
2022/08/04 08:55:49;;;;;;;10.60;3.60;;;;;;;27.00;45.87;98159.20;108305;1287;22456;-86
2022/08/04 08:58:31;;;;;;;5.40;3.10;;;;;;;27.06;45.37;98160.76;108229;1288;22360;-86
2022/08/04 09:01:22;;;;;;;6.70;3.20;;;;;;;27.10;44.60;98166.98;108125;1288;22301;-87
2022/08/04 09:04:28;;;;;;;7.40;3.20;;;;;;;27.17;45.03;98171.33;108135;1286;22592;-85
2022/08/04 09:07:37;;;;;;;7.00;3.20;;;;;;;27.33;44.28;98165.71;107815;1288;22351;-87
2022/08/04 09:10:18;;;;;;;5.70;2.80;;;;;;;27.47;44.26;98162.77;108192;1288;22431;-86
2022/08/04 09:12:54;;;;;;;6.90;2.70;;;;;;;27.56;43.45;98169.13;108215;1288;22377;-86
2022/08/04 09:15:48;;;;;;;8.90;3.10;;;;;;;27.60;43.29;98166.23;108200;1288;22414;-85
2022/08/04 09:18:25;;;;;;;4.40;3.00;;;;;;;27.67;42.80;98161.45;108213;1287;22583;-86
2022/08/04 09:21:03;;;;;;;5.70;3.40;;;;;;;27.71;42.41;98163.09;108222;1287;22440;-86
2022/08/04 09:23:52;;;;;;;6.90;3.20;;;;;;;27.80;42.85;98160.81;108108;1287;22460;-85
2022/08/04 09:26:30;;;;;;;6.10;3.30;;;;;;;27.93;42.42;98163.66;108230;1287;23060;-86
2022/08/04 09:29:18;;;;;;;6.00;3.60;;;;;;;27.99;42.43;98167.01;108238;1286;23004;-85
2022/08/04 09:32:02;;;;;;;6.40;4.10;;;;;;;28.04;42.22;98165.54;108224;1287;22393;-86
2022/08/04 09:34:55;;;;;;;8.00;3.70;;;;;;;28.09;42.18;98163.77;108264;1287;22426;-86
2022/08/04 09:38:11;;;;;;;5.80;3.40;;;;;;;28.06;42.28;98167.42;108241;1288;22380;-87
2022/08/04 09:40:46;;;;;;;5.30;2.90;;;;;;;28.11;42.21;98166.13;108151;1287;22489;-87
2022/08/04 09:43:41;;;;;;;9.00;3.40;;;;;;;28.15;41.09;98161.10;108248;1288;22252;-86
2022/08/04 09:46:38;;;;;;;7.60;3.10;;;;;;;28.23;41.68;98165.62;108215;1288;22433;-86
2022/08/04 09:49:33;;;;;;;8.20;3.60;;;;;;;28.35;41.58;98161.14;108063;1288;22445;-86
2022/08/04 09:52:19;;;;;;;8.60;3.80;;;;;;;28.50;41.43;98160.86;108253;1287;22289;-87
2022/08/04 09:55:04;;;;;;;6.90;3.60;;;;;;;28.50;41.48;98154.52;108225;1288;22320;-89
2022/08/04 09:57:52;;;;;;;;;;;;;;;28.52;41.18;98148.48;108051;1288;23041;-87
2022/08/04 10:00:20;;;;;;;8.10;3.50;;;;;;;28.55;41.16;98144.02;108234;1287;22914;-87
2022/08/04 10:03:12;;;;;;;5.40;3.40;;;;;;;28.59;41.03;98146.29;108239;1287;22486;-86
2022/08/04 10:06:15;;;;;;;8.20;3.40;;;;;;;28.68;40.75;98141.10;108219;1287;22440;-87
2022/08/04 10:09:27;;;;;;;5.00;3.40;;;;;;;28.71;40.50;98137.48;108229;1288;22387;-86
2022/08/04 10:12:08;;;;;;;8.90;3.60;;;;;;;28.70;40.61;98137.18;108259;1288;22314;-86
2022/08/04 10:14:40;;;;;;;10.70;4.00;;;;;;;28.75;40.71;98138.55;108049;1288;22612;-86
2022/08/04 10:17:33;;;;;;;7.40;3.50;;;;;;;28.85;40.72;98142.16;108246;1288;22555;-87
2022/08/04 10:20:18;;;;;;;8.10;3.80;;;;;;;28.93;40.32;98141.58;108248;1287;22449;-88
2022/08/04 10:23:11;;;;;;;6.70;3.30;;;;;;;29.03;39.82;98134.52;108114;1288;22322;-88
2022/08/04 10:26:18;;;;;;;5.70;3.70;;;;;;;29.17;40.17;98136.23;108029;1288;22520;-88
2022/08/04 10:28:54;;;;;;;5.00;2.90;;;;;;;29.37;39.90;98138.79;108072;1287;22420;-87
2022/08/04 10:31:28;;;;;;;5.80;3.40;;;;;;;29.49;39.91;98136.33;108047;1287;22357;-89
2022/08/04 10:34:01;;;;;;;8.00;2.70;;;;;;;29.56;39.88;98139.38;107839;1288;23186;-89
2022/08/04 10:36:38;;;;;;;;;;;;;;;29.72;39.34;98143.38;108268;1287;22319;-88
2022/08/04 10:39:11;;;;;;;8.90;3.30;;;;;;;29.72;38.93;98145.92;108220;1287;22392;-85
2022/08/04 10:42:23;;;;;;;5.70;2.90;;;;;;;29.69;38.38;98148.67;107877;1286;22556;-85
2022/08/04 10:45:18;;;;;;;5.20;3.00;;;;;;;29.71;38.88;98138.16;108270;1287;22344;-85
2022/08/04 10:47:58;;;;;;;5.70;2.90;;;;;;;29.87;38.65;98139.80;107827;1288;22483;-85
2022/08/04 10:50:29;;;;;;;5.60;2.30;;;;;;;30.01;38.49;98135.12;108271;1287;22353;-89
2022/08/04 10:53:06;;;;;;;6.50;2.50;;;;;;;30.13;37.96;98139.77;108267;1288;22214;-89
2022/08/04 10:55:45;;;;;;;5.80;2.50;;;;;;;30.10;37.71;98140.75;108250;1287;22429;-87
2022/08/04 10:58:44;;;;;;;3.90;2.60;;;;;;;30.16;37.47;98143.36;108016;1288;22388;-88
2022/08/04 11:01:40;;;;;;;4.30;2.60;;;;;;;30.20;37.34;98141.70;108254;1287;22523;-89
2022/08/04 11:04:40;;;;;;;8.20;2.90;;;;;;;30.34;37.53;98136.86;108239;1288;22355;-87
2022/08/04 11:07:11;;;;;;;7.40;2.90;;;;;;;30.49;36.85;98132.63;108251;1288;22975;-89
2022/08/04 11:09:41;;;;;;;8.20;3.00;;;;;;;30.61;36.19;98133.81;108243;1288;22491;-89
2022/08/04 11:12:14;;;;;;;5.00;2.60;;;;;;;30.68;35.90;98143.13;107809;1288;22326;-87
2022/08/04 11:14:59;;;;;;;4.40;2.50;;;;;;;30.66;36.00;98138.31;108141;1288;23145;-85
2022/08/04 11:17:34;;;;;;;5.60;2.60;;;;;;;30.65;35.37;98136.04;108517;1287;22422;-88
2022/08/04 11:20:23;;;;;;;6.60;2.80;;;;;;;30.65;35.18;98138.34;108639;1288;22339;-85
2022/08/04 11:23:10;;;;;;;;;;;;;;;30.65;35.57;98133.65;108321;1288;22330;-88
2022/08/04 11:25:51;;;;;;;7.50;2.80;;;;;;;30.63;35.14;98134.31;108185;1288;22450;-89
2022/08/04 11:28:57;;;;;;;5.80;2.70;;;;;;;30.61;34.66;98135.55;108143;1288;22550;-88
2022/08/04 11:31:34;;;;;;;8.40;2.90;;;;;;;30.62;35.41;98130.30;108275;1287;22941;-89
2022/08/04 11:34:22;;;;;;;7.80;3.20;;;;;;;30.73;35.21;98131.04;108307;1287;22396;-89
2022/08/04 11:37:14;;;;;;;6.90;2.80;;;;;;;30.84;35.56;98136.24;108272;1288;23218;-86
2022/08/04 11:39:49;;;;;;;6.40;2.80;;;;;;;30.97;34.32;98140.17;108249;1287;22431;-86
2022/08/04 11:42:40;;;;;;;4.20;2.70;;;;;;;31.07;34.22;98138.54;107752;1288;22501;-89
2022/08/04 11:45:16;;;;;;;6.20;2.60;;;;;;;31.11;34.11;98138.68;108246;1287;22323;-88
2022/08/04 11:47:57;;;;;;;3.90;2.60;;;;;;;31.10;34.11;98131.23;108226;1288;23129;-88
2022/08/04 11:50:40;;;;;;;3.90;2.50;;;;;;;31.25;33.78;98126.45;108260;1287;23011;-88
2022/08/04 11:53:14;;;;;;;4.50;2.70;;;;;;;31.37;34.08;98127.48;108092;1288;22255;-87
2022/08/04 11:55:44;;;;;;;5.80;2.80;;;;;;;31.50;34.07;98127.59;108247;1287;22597;-85
2022/08/04 11:58:32;;;;;;;4.60;2.80;;;;;;;31.57;33.23;98126.05;108252;1287;22319;-88
2022/08/04 12:01:12;;;;;;;7.30;2.70;;;;;;;31.60;32.83;98127.20;108304;1275;22485;31
2022/08/04 12:17:37;;;;;;;4.60;2.60;;;;;;;32.30;33.28;98111.65;108516;1277;24260;31
2022/08/04 12:20:24;;;;;;;4.00;2.60;;;;;;;32.51;33.21;98106.56;108207;1281;22541;-87
2022/08/04 12:23:16;;;;;;;6.70;3.00;;;;;;;32.46;31.89;98103.67;108591;1287;22299;-87
2022/08/04 12:25:57;;;;;;;5.40;2.50;;;;;;;32.41;32.82;98102.92;108761;1275;22581;31
2022/08/04 12:28:34;;;;;;;8.30;2.50;;;;;;;32.53;32.81;98099.81;108460;1289;22570;-87
2022/08/04 12:31:41;;;;;;;8.20;2.80;;;;;;;32.61;32.69;98098.00;108116;1277;24157;-87
2022/08/04 12:37:07;;;;;;;3.80;2.60;;;;;;;32.82;32.39;98091.91;108674;1288;22496;-84
2022/08/04 12:39:38;;;;;;;7.40;3.10;;;;;;;32.87;32.14;98093.84;108690;1287;22389;-89
2022/08/04 12:42:41;;;;;;;3.40;2.70;;;;;;;32.84;31.73;98093.53;108469;1287;22277;-87
2022/08/04 12:45:28;;;;;;;3.40;2.60;;;;;;;32.88;31.75;98091.81;108347;1287;22364;-85
2022/08/04 12:47:58;;;;;;;6.10;2.80;;;;;;;32.91;31.44;98089.88;108365;1275;22656;-90
2022/08/04 12:50:35;;;;;;;5.60;3.10;;;;;;;33.00;31.39;98085.23;108577;1277;23267;-92
2022/08/04 12:53:12;;;;;;;5.00;2.60;;;;;;;33.08;30.83;98080.96;108581;1275;25136;31
2022/08/04 12:56:14;;;;;;;7.00;2.60;;;;;;;32.96;31.51;98083.67;108820;1275;22505;31